Elkhart Lake, Wisconsin
Current Conditions -  °F | °C
As of 9:18 PM on Saturday 22 Nov 2014 (Local Time) from KSBM Reporting Station
Haze Haze  
Wind Chill: 42°   Ceiling: 400
Heat Index: 42°   Visibility: 4mi
Dew Point: 40°   Wind: 3mph
Humidity: 92%   Direction: 180°S
Pressure: 29.78"   Gusts: NA
Location:  43.83°N, 88.02°W
Report Text: KSBM 230318Z AUTO 18003KT 4SM BR BKN004 OVC008 06/04 A2978 RMK AO2 CIG 004V007 T00560044
Loading
Personal Weather Stations






























Interactive Weather Map New forecast layout! Learn more

10-Day Weather Forecast

Advertisements
Track Severe Weather on mobile